Погода Летнее Озерона 2 недели

Республика Карелия, Россия

23 июля-05 августа
  • 23июля
    Сегодня
    +11°
    +24°
    Ясно и безоблачно
    ВремяПогодаТемператураВлажностьДавлениеВетер, м/сВероятность осадков
    00:00Ясно и безоблачно+12°C66 %763 мм0.6 м/с2 %
    03:00Ясно и безоблачно+9°C82 %763 мм0.7 м/с2 %
    06:00Ясно и безоблачно+13°C87 %763 мм0.5 м/с2 %
    09:00Практически безоблачно+20°C65 %763 мм1.0 м/с2 %
    12:00Ясно и безоблачно+23°C56 %763 мм2.0 м/с2 %
    15:00Ясно и безоблачно+23°C56 %762 мм2.9 м/с2 %
    18:00Ясно и безоблачно+22°C60 %762 мм2.7 м/с2 %
    21:00Ясно и безоблачно+19°C67 %761 мм2.4 м/с2 %
  • 24июля
    Среда
    +11°
    +26°
    Ясно и безоблачно
    ВремяПогодаТемператураВлажностьДавлениеВетер, м/сВероятность осадков
    00:00Ясно и безоблачно+15°C81 %761 мм2.2 м/с2 %
    03:00Ясно и безоблачно+12°C93 %761 мм1.8 м/с2 %
    06:00Ясно и безоблачно+17°C88 %761 мм1.6 м/с2 %
    09:00Ясно и безоблачно+23°C67 %761 мм0.2 м/с2 %
    12:00Ясно и безоблачно+25°C60 %760 мм2.1 м/с2 %
    15:00Ясно и безоблачно+25°C56 %760 мм2.8 м/с2 %
    18:00Ясно и безоблачно+23°C63 %759 мм2.4 м/с2 %
    21:00Ясно и безоблачно+18°C80 %759 мм1.9 м/с2 %
  • 25июля
    Четверг
    +11°
    +23°
    Практически безоблачно
    ВремяПогодаТемператураВлажностьДавлениеВетер, м/сВероятность осадков
    00:00Ясно и безоблачно+14°C85 %759 мм1.5 м/с2 %
    03:00Ясно и безоблачно+12°C91 %759 мм1.0 м/с2 %
    06:00Практически безоблачно+15°C86 %759 мм1.4 м/с2 %
    09:00Практически безоблачно+21°C68 %759 мм1.8 м/с2 %
    12:00Практически безоблачно+22°C66 %759 мм2.0 м/с2 %
    15:00Практически безоблачно+22°C65 %759 мм2.3 м/с2 %
    18:00Практически безоблачно+20°C71 %759 мм2.2 м/с2 %
    21:00Ясно и безоблачно+17°C81 %759 мм1.9 м/с2 %
  • 26июля
    Пятница
    +10°
    +23°
    Ясно и безоблачно
    ВремяПогодаТемператураВлажностьДавлениеВетер, м/сВероятность осадков
    00:00Ясно и безоблачно+13°C85 %759 мм1.7 м/с2 %
    03:00Ясно и безоблачно+11°C89 %759 мм1.9 м/с2 %
    06:00Ясно и безоблачно+15°C86 %759 мм1.4 м/с2 %
    09:00Ясно и безоблачно+20°C68 %759 мм1.4 м/с2 %
    12:00Ясно и безоблачно+22°C60 %759 мм2.3 м/с2 %
    15:00Ясно и безоблачно+22°C58 %759 мм2.3 м/с2 %
    18:00Ясно и безоблачно+21°C62 %759 мм1.8 м/с2 %
    21:00Ясно и безоблачно+17°C80 %759 мм1.5 м/с2 %
  • 27июля
    Суббота
    +14°
    +27°
    Облачно с прояснениями
    ВремяПогодаТемператураВлажностьДавлениеВетер, м/сВероятность осадков
    00:00Ясно и безоблачно+13°C82 %759 мм1.9 м/с2 %
    03:00Ясно и безоблачно+12°C83 %759 мм1.9 м/с4 %
    06:00Ясно и безоблачно+16°C82 %759 мм1.8 м/с2 %
    09:00Практически безоблачно+23°C66 %760 мм1.2 м/с5 %
    12:00Ясно и безоблачно+26°C56 %760 мм2.5 м/с7 %
    15:00Облачно с прояснениями+25°C55 %759 мм3.0 м/с22 %
    18:00Практически безоблачно+24°C61 %759 мм0.6 м/с22 %
    21:00Ясно и безоблачно+20°C90 %759 мм1.1 м/с14 %
Мы используем cookies
Соглашаюсь